Time;durP1;ratioP1;P1;durP2;ratioP2;P2;SDS_P1;SDS_P2;PMS_P1;PMS_P2;Temp;Humidity;BMP_temperature;BMP_pressure;BME280_temperature;BME280_humidity;BME280_pressure;Samples;Min_cycle;Max_cycle;Signal;HPM_P1;HPM_P2
2022/07/25 00:02:56;;;;;;;4.87;4.47;;;;;;;16.41;65.91;97859.63;6229747;28;20220;-85
2022/07/25 00:05:59;;;;;;;5.73;4.07;;;;;;;16.46;65.93;97854.69;6228646;28;20730;-85
2022/07/25 00:09:01;;;;;;;4.80;4.40;;;;;;;16.36;66.69;97849.47;6229231;28;20691;-84
2022/07/25 00:12:03;;;;;;;4.23;3.73;;;;;;;16.30;67.09;97846.56;6213145;28;20211;-84
2022/07/25 00:15:07;;;;;;;4.53;4.13;;;;;;;16.31;66.92;97837.59;6227833;28;20219;-84
2022/07/25 00:18:09;;;;;;;5.70;4.30;;;;;;;16.31;66.64;97848.25;6210578;28;20210;-85
2022/07/25 00:21:11;;;;;;;5.90;3.73;;;;;;;16.21;67.26;97835.84;6204166;28;20328;-84
2022/07/25 00:24:13;;;;;;;6.50;4.00;;;;;;;16.20;67.65;97838.66;6202365;28;20212;-84
2022/07/25 00:27:15;;;;;;;4.53;4.13;;;;;;;16.15;67.78;97841.81;6208336;28;20611;-84
2022/07/25 00:30:18;;;;;;;4.20;3.90;;;;;;;16.15;67.38;97836.50;6187314;28;20224;-85
2022/07/25 00:33:20;;;;;;;4.93;3.90;;;;;;;16.14;67.23;97834.81;6188626;28;20577;-85
2022/07/25 00:36:22;;;;;;;4.53;4.13;;;;;;;16.07;67.66;97833.72;6189322;28;20231;-85
2022/07/25 00:39:24;;;;;;;5.77;4.90;;;;;;;16.04;68.13;97828.72;6220035;28;20244;-85
2022/07/25 00:42:26;;;;;;;6.77;4.67;;;;;;;15.99;68.49;97825.69;6205645;28;20251;-84
2022/07/25 00:45:28;;;;;;;4.73;4.30;;;;;;;16.01;68.34;97817.53;6187048;28;20258;-85
2022/07/25 00:48:30;;;;;;;5.37;4.87;;;;;;;16.03;68.05;97824.41;6204208;28;20232;-85
2022/07/25 00:51:32;;;;;;;4.07;3.77;;;;;;;15.98;67.56;97821.34;6204435;28;20319;-84
2022/07/25 00:54:35;;;;;;;5.37;4.33;;;;;;;15.95;68.04;97824.34;6204307;28;20792;-84
2022/07/25 00:57:37;;;;;;;4.00;3.60;;;;;;;15.91;68.67;97827.44;6204229;28;20600;-85
2022/07/25 01:00:39;;;;;;;4.20;3.90;;;;;;;15.90;68.49;97825.75;6188963;28;20232;-85
2022/07/25 01:03:42;;;;;;;6.90;3.80;;;;;;;15.90;68.02;97817.78;6206233;28;20610;-85
2022/07/25 01:06:44;;;;;;;4.67;4.27;;;;;;;15.85;68.25;97818.25;6201451;28;20244;-84
2022/07/25 01:09:46;;;;;;;4.27;3.87;;;;;;;15.81;69.11;97815.06;6204826;28;20700;-83
2022/07/25 01:12:50;;;;;;;6.93;4.20;;;;;;;15.77;69.07;97813.66;6183279;28;20229;-85
2022/07/25 01:15:52;;;;;;;6.10;4.43;;;;;;;15.73;69.47;97814.97;6189609;28;20585;-85
2022/07/25 01:18:55;;;;;;;4.70;4.13;;;;;;;15.72;69.75;97807.97;6193817;28;20322;-85
2022/07/25 01:21:57;;;;;;;4.13;3.73;;;;;;;15.67;69.22;97807.59;6205879;28;20232;-85
2022/07/25 01:24:59;;;;;;;6.43;4.20;;;;;;;15.63;69.32;97802.75;6203900;28;20247;-85
2022/07/25 01:28:01;;;;;;;6.07;4.57;;;;;;;15.56;70.04;97799.03;6188365;28;20609;-85
2022/07/25 01:31:04;;;;;;;7.00;4.70;;;;;;;15.50;70.13;97797.75;6194196;28;20235;-85
2022/07/25 01:34:06;;;;;;;5.50;4.23;;;;;;;15.48;70.09;97800.56;6180941;28;20601;-84
2022/07/25 01:37:09;;;;;;;5.00;4.57;;;;;;;15.54;70.19;97793.84;6177206;28;20240;-85
2022/07/25 01:40:12;;;;;;;4.50;4.10;;;;;;;15.55;69.98;97795.53;6197863;28;20236;-85
2022/07/25 01:43:14;;;;;;;4.17;3.83;;;;;;;15.56;69.48;97793.69;6200577;28;20237;-85
2022/07/25 01:46:17;;;;;;;4.67;4.23;;;;;;;15.52;69.72;97787.81;6183432;28;20237;-85
2022/07/25 01:49:19;;;;;;;4.80;4.03;;;;;;;15.51;70.00;97783.47;6203891;28;20252;-85
2022/07/25 01:52:21;;;;;;;4.40;4.00;;;;;;;15.49;70.00;97778.28;6206640;28;20240;-85
2022/07/25 01:55:24;;;;;;;5.00;4.33;;;;;;;15.44;69.88;97774.44;6190933;28;20653;-85
2022/07/25 01:58:28;;;;;;;4.43;4.03;;;;;;;15.40;70.08;97770.38;6183270;28;20236;-85
2022/07/25 02:01:30;;;;;;;4.80;4.20;;;;;;;15.39;70.17;97766.88;6200484;28;20299;-85
2022/07/25 02:04:34;;;;;;;4.20;3.80;;;;;;;15.41;70.01;97775.56;6214834;28;20232;-85
2022/07/25 02:07:36;;;;;;;4.50;3.90;;;;;;;15.37;69.93;97771.50;6206863;28;20246;-84
2022/07/25 02:10:39;;;;;;;4.40;4.00;;;;;;;15.33;70.07;97777.31;6208557;28;20243;-85
2022/07/25 02:13:41;;;;;;;6.77;3.87;;;;;;;15.33;70.11;97778.16;6207236;28;20228;-85
2022/07/25 02:16:43;;;;;;;4.57;4.17;;;;;;;15.27;70.13;97778.72;6190410;28;20243;-85
2022/07/25 02:19:45;;;;;;;3.90;3.60;;;;;;;15.18;70.20;97773.47;6206540;28;20270;-85
2022/07/25 02:22:47;;;;;;;4.47;4.07;;;;;;;15.13;70.49;97777.44;6182637;28;20239;-85
2022/07/25 02:25:50;;;;;;;4.63;4.23;;;;;;;15.09;70.93;97775.19;6167083;28;20721;-84
2022/07/25 02:28:52;;;;;;;3.97;3.57;;;;;;;15.05;70.66;97774.69;6222514;28;20729;-85
2022/07/25 02:31:54;;;;;;;4.97;3.90;;;;;;;15.02;70.77;97768.81;6208727;28;20228;-85
2022/07/25 02:34:57;;;;;;;4.20;3.73;;;;;;;14.99;70.91;97769.09;6197895;28;20232;-85
2022/07/25 02:37:59;;;;;;;4.23;3.37;;;;;;;14.99;71.20;97771.75;6214347;28;20612;-85
2022/07/25 02:41:01;;;;;;;4.20;3.80;;;;;;;15.00;70.91;97774.28;6197460;28;20582;-85
2022/07/25 02:44:05;;;;;;;4.33;3.93;;;;;;;14.99;70.12;97769.94;6214409;28;20715;-84
2022/07/25 02:47:07;;;;;;;5.10;3.93;;;;;;;15.02;70.57;97771.47;6213102;28;20230;-85
2022/07/25 02:50:09;;;;;;;3.73;3.43;;;;;;;15.00;71.18;97776.09;6213887;28;20774;-85
2022/07/25 02:53:15;;;;;;;4.73;4.33;;;;;;;14.95;71.19;97773.91;6231728;28;20580;-85
2022/07/25 02:56:37;;;;;;;4.43;4.03;;;;;;;14.98;71.20;97775.41;6231168;28;20228;-85
2022/07/25 02:59:39;;;;;;;5.57;4.43;;;;;;;15.00;71.02;97776.94;6212913;28;20231;-85
2022/07/25 03:02:42;;;;;;;5.93;4.03;;;;;;;14.95;70.87;97768.59;6214891;28;20231;-84
2022/07/25 03:05:44;;;;;;;4.17;3.80;;;;;;;14.92;70.92;97776.84;6197335;28;20227;-84
2022/07/25 03:08:46;;;;;;;5.17;3.97;;;;;;;14.89;71.54;97771.81;6213658;28;21860;-85
2022/07/25 03:11:50;;;;;;;5.23;4.30;;;;;;;14.95;71.64;97770.41;6223710;28;20272;-85
2022/07/25 03:14:52;;;;;;;5.00;4.50;;;;;;;14.97;71.43;97763.94;6197049;28;20224;-85
2022/07/25 03:17:54;;;;;;;5.17;4.67;;;;;;;14.96;71.69;97767.59;6213251;28;20243;-85
2022/07/25 03:20:57;;;;;;;4.73;4.33;;;;;;;14.92;71.66;97766.22;6196526;28;20730;-85
2022/07/25 03:23:59;;;;;;;4.10;3.77;;;;;;;14.90;71.66;97770.00;6196661;28;20228;-85
2022/07/25 03:27:01;;;;;;;5.33;4.47;;;;;;;14.86;72.39;97764.16;6213682;28;20236;-84
2022/07/25 03:30:03;;;;;;;4.70;4.30;;;;;;;14.89;72.02;97760.34;6196650;28;20703;-84
2022/07/25 03:33:06;;;;;;;6.10;4.43;;;;;;;14.87;72.35;97760.53;6213158;28;20227;-84
2022/07/25 03:36:09;;;;;;;5.13;4.63;;;;;;;14.84;72.28;97760.81;6212038;28;20200;-85
2022/07/25 03:39:11;;;;;;;5.77;4.50;;;;;;;14.86;72.37;97756.19;6212775;28;20204;-85
2022/07/25 03:42:14;;;;;;;5.23;4.73;;;;;;;14.91;71.85;97755.72;6187753;28;20554;-85
2022/07/25 03:45:16;;;;;;;4.50;4.10;;;;;;;14.92;71.89;97752.94;6201043;28;20247;-85
2022/07/25 03:48:18;;;;;;;5.00;4.60;;;;;;;14.96;71.95;97762.28;6205751;28;20641;-85
2022/07/25 03:51:20;;;;;;;4.63;4.23;;;;;;;14.96;72.17;97759.63;6204194;28;20711;-85
2022/07/25 03:54:23;;;;;;;5.10;4.60;;;;;;;14.97;72.69;97760.47;6216472;28;20238;-85
2022/07/25 03:57:25;;;;;;;5.73;4.50;;;;;;;15.02;72.23;97772.31;6211532;28;20322;-85
2022/07/25 04:00:27;;;;;;;4.60;4.20;;;;;;;15.07;72.06;97761.25;6211715;28;20251;-85
2022/07/25 04:03:29;;;;;;;4.47;4.07;;;;;;;15.09;72.25;97760.09;6196440;28;20235;-85
2022/07/25 04:06:32;;;;;;;4.60;4.20;;;;;;;15.13;72.36;97758.81;6211094;28;20274;-85
2022/07/25 04:09:34;;;;;;;7.80;4.50;;;;;;;15.17;72.63;97758.53;6211688;28;20235;-84
2022/07/25 04:12:36;;;;;;;16.60;5.50;;;;;;;15.17;72.28;97758.53;6190992;28;20232;-84
2022/07/25 04:15:38;;;;;;;4.93;4.30;;;;;;;15.22;72.09;97759.75;6195317;28;20232;-85
2022/07/25 04:18:41;;;;;;;7.67;4.60;;;;;;;15.31;71.87;97748.19;6217882;28;20224;-85
2022/07/25 04:21:44;;;;;;;8.37;5.67;;;;;;;15.39;71.94;97742.13;6212307;28;20223;-86
2022/07/25 04:24:46;;;;;;;5.57;5.07;;;;;;;15.40;71.68;97744.63;6211386;28;20695;-86
2022/07/25 04:27:48;;;;;;;5.67;5.17;;;;;;;15.45;71.58;97741.53;6206548;28;20290;-85
2022/07/25 04:30:51;;;;;;;6.20;5.50;;;;;;;15.48;71.84;97739.38;6217801;28;20309;-86
2022/07/25 04:33:53;;;;;;;5.07;4.53;;;;;;;15.52;71.57;97732.78;6195891;28;20235;-86
2022/07/25 04:36:55;;;;;;;5.60;5.00;;;;;;;15.57;71.68;97742.16;6210853;28;20674;-86
2022/07/25 04:39:57;;;;;;;5.97;4.90;;;;;;;15.56;71.86;97737.84;6210875;28;20725;-86
2022/07/25 04:42:59;;;;;;;4.97;4.53;;;;;;;15.69;71.43;97736.44;6186555;28;20243;-85
2022/07/25 04:46:02;;;;;;;5.23;4.83;;;;;;;15.76;71.33;97732.19;6183141;28;20243;-86
2022/07/25 04:49:04;;;;;;;5.03;4.63;;;;;;;15.84;70.83;97728.75;6210229;28;20696;-87
2022/07/25 04:52:06;;;;;;;5.53;5.03;;;;;;;15.92;70.88;97734.13;6211475;28;20235;-88
2022/07/25 04:55:08;;;;;;;5.67;5.00;;;;;;;15.93;71.12;97724.31;6212455;28;20346;-87
2022/07/25 04:58:11;;;;;;;5.50;5.00;;;;;;;16.02;70.89;97734.88;6214325;28;20601;-87
2022/07/25 05:01:13;;;;;;;7.00;5.37;;;;;;;16.10;70.46;97729.59;6197827;28;20254;-87
2022/07/25 05:04:15;;;;;;;5.20;4.80;;;;;;;16.11;70.75;97719.78;6213475;28;20675;-87
2022/07/25 05:07:17;;;;;;;5.17;4.67;;;;;;;16.15;70.83;97721.16;6213927;28;20228;-89
2022/07/25 05:10:20;;;;;;;5.60;4.73;;;;;;;16.21;70.70;97724.00;6207502;28;20622;-89
2022/07/25 05:13:22;;;;;;;5.43;4.93;;;;;;;16.30;70.37;97724.88;6194921;28;20589;-89
2022/07/25 05:16:24;;;;;;;6.23;5.20;;;;;;;16.39;70.00;97717.78;6184232;28;20248;-92
2022/07/25 05:19:27;;;;;;;5.07;4.53;;;;;;;16.41;70.03;97719.28;6201716;28;20264;-89
2022/07/25 05:22:29;;;;;;;5.27;4.70;;;;;;;16.51;69.97;97709.34;6201412;28;20228;-87
2022/07/25 06:29:01;;;;;;;10.77;4.17;;;;;;;19.15;61.91;97676.69;6183487;28;20789;-87
2022/07/25 06:32:07;;;;;;;7.40;3.60;;;;;;;19.27;61.34;97669.06;6198015;28;20221;-85
2022/07/25 06:35:17;;;;;;;3.83;3.30;;;;;;;19.46;60.14;97667.78;6198410;28;20228;-87
2022/07/25 06:38:19;;;;;;;4.33;3.60;;;;;;;19.73;58.92;97666.41;6166303;28;20324;-86
2022/07/25 06:41:21;;;;;;;7.37;3.90;;;;;;;20.02;58.09;97663.78;6182250;28;20233;-86
2022/07/25 06:44:24;;;;;;;4.57;4.10;;;;;;;20.33;56.12;97668.16;6173553;28;20229;-87
2022/07/25 06:47:26;;;;;;;6.20;3.53;;;;;;;20.76;53.15;97661.13;6177255;28;20598;-87
2022/07/25 06:50:36;;;;;;;6.40;4.10;;;;;;;21.14;52.17;97659.94;6165100;28;20370;-90
2022/07/25 06:53:38;;;;;;;4.70;3.60;;;;;;;21.46;51.34;97657.81;6187402;28;20602;-89
2022/07/25 06:56:40;;;;;;;4.87;3.50;;;;;;;21.80;48.83;97660.56;6164985;28;20260;-88
2022/07/25 06:59:43;;;;;;;3.77;3.47;;;;;;;22.22;47.46;97648.91;6165137;28;20762;-89
2022/07/25 07:02:48;;;;;;;4.67;3.40;;;;;;;22.55;47.28;97649.13;6181733;28;20241;-90
2022/07/25 07:05:53;;;;;;;3.43;3.00;;;;;;;22.82;45.15;97655.47;6196458;28;20706;-92
2022/07/25 07:08:55;;;;;;;3.20;2.83;;;;;;;23.08;45.68;97647.47;6181259;28;20387;-93
2022/07/25 07:11:57;;;;;;;3.73;3.40;;;;;;;23.40;43.58;97653.13;6157742;28;20234;-90
2022/07/25 07:14:59;;;;;;;3.97;3.40;;;;;;;23.78;41.59;97648.00;6191739;28;20348;-90
2022/07/25 07:18:02;;;;;;;3.53;3.23;;;;;;;24.17;41.68;97644.47;6164581;28;20229;-89
2022/07/25 07:21:05;;;;;;;3.60;3.30;;;;;;;24.33;40.72;97645.94;6182564;28;20728;-89
2022/07/25 07:24:08;;;;;;;3.90;3.50;;;;;;;24.77;40.51;97648.69;6164669;28;20216;-90
2022/07/25 07:27:25;;;;;;;4.47;4.07;;;;;;;24.92;39.29;97643.88;6193639;28;20259;-90
2022/07/25 07:30:27;;;;;;;6.80;3.10;;;;;;;25.36;39.11;97642.16;6221025;28;20718;-90
2022/07/25 07:33:49;;;;;;;4.80;3.83;;;;;;;25.50;38.02;97635.66;6204039;28;20221;-90
2022/07/25 07:36:51;;;;;;;6.40;3.70;;;;;;;25.84;37.59;97636.25;6204613;28;20339;-90
2022/07/25 07:39:53;;;;;;;4.17;3.50;;;;;;;26.13;37.43;97630.16;6204695;28;20228;-90
2022/07/25 07:42:57;;;;;;;3.47;3.17;;;;;;;26.53;36.77;97627.91;6180869;28;20233;-90
2022/07/25 07:45:59;;;;;;;3.50;3.20;;;;;;;26.73;36.21;97624.94;6190850;28;20667;-90
2022/07/25 07:49:02;;;;;;;3.60;3.30;;;;;;;26.95;35.61;97623.44;6211891;28;20346;-90
2022/07/25 07:52:05;;;;;;;4.35;3.50;;;;;;;27.11;35.41;97617.41;6188441;28;20235;-90
2022/07/25 07:58:29;;;;;;;4.25;3.58;;;;;;;27.31;34.96;97616.28;6205484;28;20278;-91
2022/07/25 08:01:32;;;;;;;3.25;2.95;;;;;;;27.57;35.30;97607.75;6205270;28;20239;-91
2022/07/25 08:04:34;;;;;;;3.88;3.45;;;;;;;27.73;34.49;97603.56;6205093;28;20239;-90
2022/07/25 08:07:37;;;;;;;3.75;3.45;;;;;;;28.04;33.55;97602.41;6220470;28;20242;-91
2022/07/25 08:10:42;;;;;;;5.07;3.63;;;;;;;28.47;33.02;97593.88;6211665;28;20717;-90
2022/07/25 08:13:44;;;;;;;3.50;3.20;;;;;;;28.61;32.79;97584.41;6191317;28;20229;-90
2022/07/25 08:16:46;;;;;;;3.97;3.58;;;;;;;29.01;31.83;97587.13;6212647;28;20228;-90
2022/07/25 08:19:48;;;;;;;4.13;3.83;;;;;;;29.30;32.21;97588.78;6203920;28;20232;-90
2022/07/25 08:22:50;;;;;;;4.80;3.42;;;;;;;29.13;30.79;97579.75;6204675;28;20236;-92
2022/07/25 08:25:57;;;;;;;4.00;3.30;;;;;;;28.70;31.65;97579.41;6204965;28;20232;-90
2022/07/25 08:28:59;;;;;;;4.22;2.90;;;;;;;29.13;32.68;97577.03;6212071;28;20226;-90
2022/07/25 08:32:20;;;;;;;3.72;3.42;;;;;;;29.77;32.40;97579.50;6177809;28;20643;-90
2022/07/25 08:35:24;;;;;;;5.00;3.15;;;;;;;30.15;30.88;97573.34;6196329;28;20227;-90
2022/07/25 08:38:28;;;;;;;3.55;3.17;;;;;;;30.38;30.62;97573.91;6211172;28;20223;-90
2022/07/25 08:41:32;;;;;;;3.55;2.88;;;;;;;30.63;29.51;97562.56;6212238;28;20605;-90
2022/07/25 08:44:39;;;;;;;3.60;3.08;;;;;;;30.77;29.26;97563.81;6205689;28;20312;-91
2022/07/25 08:47:42;;;;;;;3.30;3.00;;;;;;;31.03;29.69;97558.66;6200594;28;20596;-90
2022/07/25 08:50:46;;;;;;;3.63;3.28;;;;;;;30.62;28.51;97563.63;6220806;28;20283;-91
2022/07/25 08:53:49;;;;;;;4.70;3.17;;;;;;;30.85;28.50;97548.06;6216954;28;20228;-90
2022/07/25 08:56:51;;;;;;;2.80;2.60;;;;;;;31.30;30.26;97553.22;6216064;28;20244;-90
2022/07/25 08:59:57;;;;;;;3.67;3.00;;;;;;;31.39;28.66;97544.28;6216466;28;20247;-91
2022/07/25 09:03:01;;;;;;;3.70;3.10;;;;;;;31.50;28.22;97546.03;6216142;28;20297;-90
2022/07/25 09:06:14;;;;;;;3.15;2.95;;;;;;;32.07;26.71;97545.38;6199615;28;20238;-90
2022/07/25 09:09:17;;;;;;;3.38;3.13;;;;;;;32.54;27.25;97528.97;6199362;28;20219;-91
2022/07/25 09:12:25;;;;;;;4.53;3.67;;;;;;;32.89;27.50;97536.50;6207358;28;20228;-88
2022/07/25 09:15:30;;;;;;;4.28;3.65;;;;;;;32.72;27.15;97526.88;6224917;28;20727;-88
2022/07/25 09:18:35;;;;;;;3.58;3.25;;;;;;;32.99;28.09;97536.53;6231571;28;20306;-88
2022/07/25 09:21:38;;;;;;;4.15;3.50;;;;;;;32.59;27.58;97528.16;6232793;28;20231;-88
2022/07/25 09:24:44;;;;;;;4.38;3.42;;;;;;;33.15;26.81;97525.59;6215999;28;20238;-88
2022/07/25 09:27:47;;;;;;;3.63;2.97;;;;;;;33.14;27.00;97523.97;6230909;28;20230;-89
2022/07/25 09:30:54;;;;;;;3.42;3.08;;;;;;;33.18;26.68;97525.06;6214615;28;20231;-88
2022/07/25 09:33:58;;;;;;;3.65;3.35;;;;;;;33.59;26.39;97504.03;6231529;28;20243;-88
2022/07/25 09:37:02;;;;;;;4.00;3.60;;;;;;;34.18;27.21;97500.66;6200054;28;20220;-88
2022/07/25 09:40:13;;;;;;;4.30;3.97;;;;;;;34.59;26.05;97504.09;6215361;28;20574;-89
2022/07/25 09:43:15;;;;;;;6.22;3.55;;;;;;;34.31;26.38;97497.38;6206871;28;20249;-88
2022/07/25 09:46:31;;;;;;;4.20;3.80;;;;;;;34.46;25.41;97500.03;6190720;28;20247;-89
2022/07/25 09:49:44;;;;;;;4.30;3.90;;;;;;;33.92;25.63;97488.97;6215349;28;20278;-88
2022/07/25 09:52:46;;;;;;;4.32;3.97;;;;;;;34.37;25.83;97491.56;6198189;28;20232;-87
2022/07/25 09:55:48;;;;;;;4.20;3.80;;;;;;;34.83;25.10;97485.91;6198262;28;20266;-88
2022/07/25 09:58:51;;;;;;;4.35;3.95;;;;;;;34.47;25.42;97487.97;6214777;28;20660;-88
2022/07/25 10:02:09;;;;;;;5.47;3.67;;;;;;;34.14;25.78;97483.94;6214037;28;20608;-89
2022/07/25 10:05:31;;;;;;;3.92;3.63;;;;;;;34.13;26.32;97479.59;6213635;28;20226;-89
2022/07/25 10:08:38;;;;;;;5.40;4.40;;;;;;;34.52;25.40;97479.72;6197558;28;20228;-89
2022/07/25 10:12:04;;;;;;;4.35;3.95;;;;;;;34.44;25.23;97478.38;6214275;28;20248;-89
2022/07/25 10:15:10;;;;;;;5.18;4.45;;;;;;;34.28;26.37;97465.84;6205823;28;20224;-89
2022/07/25 10:18:14;;;;;;;4.85;4.28;;;;;;;34.58;27.73;97473.09;6233595;28;20239;-88
2022/07/25 10:21:18;;;;;;;5.40;4.82;;;;;;;34.53;26.18;97464.09;6214247;28;20208;-89
2022/07/25 10:24:34;;;;;;;9.50;4.53;;;;;;;34.38;25.94;97454.03;6214279;28;20231;-89
2022/07/25 10:27:47;;;;;;;4.70;4.25;;;;;;;34.84;25.44;97459.28;6197867;28;20235;-89
2022/07/25 10:30:57;;;;;;;4.07;3.60;;;;;;;34.76;25.23;97455.22;6221454;28;20239;-88
2022/07/25 10:34:04;;;;;;;4.38;3.95;;;;;;;34.77;25.27;97443.13;6211180;28;20350;-88
2022/07/25 10:37:13;;;;;;;4.88;4.40;;;;;;;34.74;25.35;97440.91;6218863;28;20326;-88
2022/07/25 10:40:31;;;;;;;5.88;4.25;;;;;;;34.92;24.96;97434.00;6212927;28;20232;-88
2022/07/25 10:43:37;;;;;;;4.25;3.95;;;;;;;35.34;25.31;97427.94;6217848;28;20232;-88
2022/07/25 10:46:43;;;;;;;5.43;4.25;;;;;;;35.35;24.90;97427.63;6202158;28;20231;-89
2022/07/25 10:49:55;;;;;;;5.03;4.40;;;;;;;36.06;24.64;97420.56;6207615;28;20232;-88
2022/07/25 10:53:43;;;;;;;4.30;3.90;;;;;;;36.05;23.72;97416.19;6203327;28;20248;-89
2022/07/25 10:56:55;;;;;;;7.00;4.35;;;;;;;36.12;23.91;97411.19;6218215;28;20576;-88
2022/07/25 11:00:07;;;;;;;4.18;3.88;;;;;;;35.95;23.97;97416.31;6206638;28;22138;-88
2022/07/25 11:03:11;;;;;;;5.18;4.22;;;;;;;35.55;24.74;97401.06;6201679;28;20599;-89
2022/07/25 11:06:37;;;;;;;3.63;3.33;;;;;;;35.92;24.42;97395.75;6237185;28;20220;-89
2022/07/25 11:09:41;;;;;;;4.60;4.18;;;;;;;35.40;24.21;97393.81;6221658;28;20232;-89
2022/07/25 11:12:47;;;;;;;4.50;4.10;;;;;;;36.00;24.30;97389.59;6214193;28;20237;-88
2022/07/25 11:15:49;;;;;;;4.10;3.80;;;;;;;36.49;23.39;97381.00;6197711;28;20631;-88
2022/07/25 11:18:53;;;;;;;4.03;3.67;;;;;;;36.57;23.46;97382.25;6222140;28;20238;-89
2022/07/25 11:21:58;;;;;;;4.90;3.78;;;;;;;37.03;23.63;97387.09;6215585;28;20229;-90
2022/07/25 11:25:01;;;;;;;4.82;3.90;;;;;;;37.39;23.00;97368.03;6215737;28;20223;-88
2022/07/25 11:28:04;;;;;;;4.68;3.90;;;;;;;37.60;22.57;97370.09;6230869;28;20240;-89
2022/07/25 11:31:06;;;;;;;5.00;4.55;;;;;;;37.50;22.39;97366.72;6220956;28;20239;-88
2022/07/25 11:34:08;;;;;;;4.63;3.85;;;;;;;37.89;22.68;97350.53;6213901;28;20726;-89
2022/07/25 11:37:11;;;;;;;5.13;4.63;;;;;;;38.40;22.24;97355.78;6197227;28;20242;-89
2022/07/25 11:40:15;;;;;;;4.53;4.22;;;;;;;38.17;22.10;97354.09;6197957;28;20652;-89
2022/07/25 11:43:22;;;;;;;6.25;4.68;;;;;;;37.71;22.44;97345.97;6205175;28;20236;-89
2022/07/25 11:46:24;;;;;;;4.82;4.53;;;;;;;36.81;23.51;97343.69;6193832;28;20233;-89
2022/07/25 11:49:27;;;;;;;5.00;4.60;;;;;;;36.28;24.08;97338.41;6214066;28;20627;-88
2022/07/25 11:52:38;;;;;;;5.50;5.00;;;;;;;36.50;23.90;97337.81;6212542;28;22324;-89
2022/07/25 11:55:44;;;;;;;5.25;4.78;;;;;;;37.08;24.19;97332.75;6213245;28;20212;-89
2022/07/25 11:59:04;;;;;;;5.15;4.75;;;;;;;37.10;23.24;97335.22;6212338;28;20231;-93
2022/07/25 12:02:07;;;;;;;5.22;4.78;;;;;;;37.19;23.25;97323.22;6196272;28;20240;-88
2022/07/25 12:05:11;;;;;;;4.78;4.38;;;;;;;37.48;23.42;97319.38;6194596;28;20286;-90
2022/07/25 12:08:15;;;;;;;4.72;4.32;;;;;;;37.60;22.78;97305.94;6207400;28;20258;-89
2022/07/25 12:11:21;;;;;;;5.30;4.85;;;;;;;38.02;22.38;97302.03;6199203;28;20351;-90
2022/07/25 12:14:23;;;;;;;5.10;4.63;;;;;;;38.17;22.45;97309.16;6204078;28;20236;-89
2022/07/25 12:17:25;;;;;;;4.88;4.47;;;;;;;37.60;23.08;97301.25;6200324;28;20734;-87
2022/07/25 12:20:46;;;;;;;5.15;4.65;;;;;;;37.99;22.91;97297.13;6195447;28;20703;-88
2022/07/25 12:23:48;;;;;;;5.15;4.63;;;;;;;38.34;21.60;97299.09;6211975;28;20239;-90
2022/07/25 12:26:51;;;;;;;5.20;4.72;;;;;;;37.80;22.53;97280.75;6195675;28;20232;-89
2022/07/25 12:29:53;;;;;;;5.70;5.05;;;;;;;38.29;22.11;97292.91;6195136;28;20235;-89
2022/07/25 12:32:57;;;;;;;5.00;4.60;;;;;;;38.02;22.32;97280.81;6211641;28;20784;-88
2022/07/25 12:36:00;;;;;;;5.00;4.50;;;;;;;37.96;22.83;97268.25;6213009;28;20227;-90
2022/07/25 12:39:09;;;;;;;5.38;4.88;;;;;;;37.80;22.77;97261.44;6228685;28;20240;-90
2022/07/25 12:42:11;;;;;;;4.95;4.55;;;;;;;37.94;22.27;97266.91;6203118;28;20224;-90
2022/07/25 12:45:15;;;;;;;5.38;4.97;;;;;;;38.03;21.94;97267.84;6219000;28;20243;-90
2022/07/25 12:48:18;;;;;;;5.97;5.38;;;;;;;37.93;22.32;97260.63;6213515;28;20223;-91
2022/07/25 12:51:20;;;;;;;5.25;4.72;;;;;;;38.58;21.65;97259.41;6214787;28;20230;-91
2022/07/25 12:54:26;;;;;;;4.97;4.57;;;;;;;38.77;21.55;97262.78;6196045;28;20234;-89
2022/07/25 12:57:28;;;;;;;5.20;4.70;;;;;;;39.03;21.76;97261.00;6211837;28;20227;-89
2022/07/25 13:00:30;;;;;;;6.03;5.18;;;;;;;39.35;21.60;97247.97;6211851;28;20234;-89
2022/07/25 13:03:32;;;;;;;4.82;4.43;;;;;;;39.81;21.30;97242.78;6211699;28;20224;-89
2022/07/25 13:06:35;;;;;;;5.20;4.80;;;;;;;39.68;21.08;97240.16;6203467;28;20228;-90
2022/07/25 13:09:39;;;;;;;5.82;5.35;;;;;;;39.77;20.70;97241.78;6207294;28;20318;-89
2022/07/25 13:12:41;;;;;;;5.07;4.65;;;;;;;39.20;21.79;97226.34;6229673;28;20239;-89
2022/07/25 13:15:44;;;;;;;7.18;5.07;;;;;;;39.41;21.49;97227.41;6229592;28;20235;-90
2022/07/25 13:18:46;;;;;;;5.32;4.93;;;;;;;39.24;21.73;97219.03;6211474;28;20235;-90
2022/07/25 13:21:48;;;;;;;5.50;5.10;;;;;;;39.41;21.29;97214.41;6227831;28;20702;-90
2022/07/25 13:24:51;;;;;;;5.88;5.22;;;;;;;40.03;21.20;97211.44;6212009;28;20565;-89
2022/07/25 13:27:53;;;;;;;5.80;5.03;;;;;;;40.79;20.50;97208.97;6228555;28;20236;-90
2022/07/25 13:30:55;;;;;;;5.90;5.40;;;;;;;41.17;20.50;97203.47;6204302;28;20718;-89
2022/07/25 13:33:57;;;;;;;5.80;5.30;;;;;;;41.24;19.68;97197.41;6238478;28;20227;-89
2022/07/25 13:37:00;;;;;;;6.07;5.50;;;;;;;41.61;19.59;97199.34;6216047;28;20262;-90
2022/07/25 13:40:03;;;;;;;5.90;5.43;;;;;;;40.84;20.08;97194.94;6215728;28;20599;-90
2022/07/25 13:43:05;;;;;;;5.22;4.82;;;;;;;41.45;20.08;97192.72;6214740;28;20232;-89
2022/07/25 13:46:08;;;;;;;6.53;5.97;;;;;;;41.33;19.78;97192.63;6215283;28;20220;-89
2022/07/25 13:49:10;;;;;;;5.28;4.88;;;;;;;41.32;19.30;97191.03;6231039;28;20235;-90
2022/07/25 13:52:13;;;;;;;5.63;5.13;;;;;;;41.54;19.18;97190.72;6192668;28;20323;-90
2022/07/25 13:55:15;;;;;;;5.68;5.15;;;;;;;41.45;19.33;97189.94;6193292;28;20231;-90
2022/07/25 13:58:17;;;;;;;6.43;5.68;;;;;;;42.09;18.92;97184.16;6183230;28;20229;-90
2022/07/25 14:01:20;;;;;;;7.97;5.40;;;;;;;42.07;18.86;97177.31;6206535;28;20231;-90
2022/07/25 14:04:22;;;;;;;5.88;5.38;;;;;;;41.75;19.46;97171.34;6207867;28;20529;-90
2022/07/25 14:07:24;;;;;;;5.20;4.80;;;;;;;42.61;18.58;97169.81;6222806;28;20232;-89
2022/07/25 14:10:27;;;;;;;5.82;5.32;;;;;;;43.23;18.04;97168.75;6190077;28;20229;-90
2022/07/25 14:13:29;;;;;;;5.75;5.32;;;;;;;42.96;17.80;97159.13;6222422;28;20239;-89
2022/07/25 14:16:32;;;;;;;6.10;5.50;;;;;;;44.91;15.92;97164.22;6191271;28;20243;-89
2022/07/25 14:19:34;;;;;;;6.85;5.30;;;;;;;47.23;14.53;97152.03;6222288;28;20251;-89
2022/07/25 14:22:38;;;;;;;5.75;5.15;;;;;;;48.83;13.33;97154.16;6189372;28;20232;-88
2022/07/25 14:25:46;;;;;;;5.90;5.30;;;;;;;48.60;13.63;97155.13;6189983;28;20244;-89
2022/07/25 14:28:48;;;;;;;6.07;5.60;;;;;;;49.76;12.22;97148.88;6206408;28;20235;-89
2022/07/25 14:31:50;;;;;;;5.85;5.25;;;;;;;50.11;12.15;97142.66;6205949;28;20596;-90
2022/07/25 14:34:53;;;;;;;5.95;5.30;;;;;;;50.37;12.31;97135.94;6189672;28;20228;-90
2022/07/25 14:37:55;;;;;;;6.65;5.50;;;;;;;50.98;11.73;97147.31;6190392;28;20228;-90
2022/07/25 14:40:57;;;;;;;7.13;5.40;;;;;;;51.25;11.15;97132.47;6188817;28;20243;-88
2022/07/25 14:43:59;;;;;;;6.00;5.28;;;;;;;51.71;10.92;97120.34;6205728;28;20702;-89
2022/07/25 14:47:01;;;;;;;6.03;5.60;;;;;;;52.24;10.46;97113.69;6181958;28;20244;-88
2022/07/25 14:50:04;;;;;;;5.97;5.57;;;;;;;51.73;10.99;97114.28;6188868;28;20240;-89
2022/07/25 14:53:06;;;;;;;5.72;5.22;;;;;;;50.60;11.47;97107.53;6197772;28;20241;-87
2022/07/25 14:56:08;;;;;;;5.60;5.13;;;;;;;51.12;11.21;97103.09;6205431;28;20232;-88
2022/07/25 14:59:11;;;;;;;6.03;5.55;;;;;;;49.30;12.56;97098.09;6206140;28;20233;-89
2022/07/25 15:02:13;;;;;;;5.43;5.03;;;;;;;50.50;11.24;97092.22;6205473;28;20220;-89
2022/07/25 15:05:15;;;;;;;5.80;5.30;;;;;;;51.85;10.96;97097.75;6207000;28;20705;-89
2022/07/25 15:08:17;;;;;;;6.38;5.80;;;;;;;50.52;10.86;97095.41;6205658;28;20735;-88
2022/07/25 15:11:20;;;;;;;5.40;5.00;;;;;;;51.42;11.48;97096.25;6189367;28;20236;-89
2022/07/25 15:14:22;;;;;;;6.47;4.95;;;;;;;52.68;10.53;97093.31;6197136;28;20535;-89
2022/07/25 15:17:24;;;;;;;6.07;5.47;;;;;;;53.71;10.11;97098.03;6191590;28;20255;-88
2022/07/25 15:20:26;;;;;;;5.60;5.10;;;;;;;53.64;9.84;97086.78;6205371;28;20240;-89
2022/07/25 15:23:29;;;;;;;5.22;4.82;;;;;;;54.07;9.64;97092.75;6188632;28;20224;-89
2022/07/25 15:26:32;;;;;;;7.43;5.90;;;;;;;53.08;10.13;97089.78;6185514;28;20239;-90
2022/07/25 15:29:34;;;;;;;5.85;5.28;;;;;;;53.34;9.21;97087.50;6189753;28;20228;-90
2022/07/25 15:32:37;;;;;;;5.50;5.03;;;;;;;53.46;9.31;97080.53;6187183;28;20239;-91
2022/07/25 15:35:40;;;;;;;5.38;4.88;;;;;;;54.00;9.81;97081.53;6171039;28;20238;-89